Time;durP1;ratioP1;P1;durP2;ratioP2;P2;SDS_P1;SDS_P2;PMS_P1;PMS_P2;Temp;Humidity;BMP_temperature;BMP_pressure;BME280_temperature;BME280_humidity;BME280_pressure;Samples;Min_cycle;Max_cycle;Signal;HPM_P1;HPM_P2
2024/03/05 00:01:02;;;;;;;74.38;47.95;;;;;;;10.50;75.61;97730.28;4973980;28;20129;-77
2024/03/05 00:03:28;;;;;;;73.35;48.72;;;;;;;10.46;76.04;97728.31;4958228;28;20038;-77
2024/03/05 00:05:54;;;;;;;75.22;48.50;;;;;;;10.25;75.97;97695.03;4965932;28;20042;-77
2024/03/05 00:08:20;;;;;;;71.20;47.55;;;;;;;10.41;76.36;97729.09;4957599;28;20401;-77
2024/03/05 00:10:46;;;;;;;77.40;50.53;;;;;;;10.26;76.47;97720.88;4978112;28;20027;-75
2024/03/05 00:13:12;;;;;;;69.85;47.70;;;;;;;10.20;77.27;97720.00;4962578;28;20533;-75
2024/03/05 00:15:39;;;;;;;76.65;48.30;;;;;;;10.20;76.86;97722.69;4989714;28;20027;-76
2024/03/05 00:18:05;;;;;;;73.00;48.88;;;;;;;10.27;77.02;97739.47;4984659;28;20043;-75
2024/03/05 00:20:33;;;;;;;74.28;48.22;;;;;;;10.20;77.51;97719.19;4989586;28;20098;-75
2024/03/05 00:22:59;;;;;;;79.47;49.47;;;;;;;10.22;77.49;97741.31;4995392;28;20394;-76
2024/03/05 00:25:24;;;;;;;74.30;48.80;;;;;;;10.15;77.45;97722.66;4965408;28;20031;-74
2024/03/05 00:27:50;;;;;;;74.78;49.53;;;;;;;10.22;77.20;97741.31;4961020;28;20046;-76
2024/03/05 00:30:18;;;;;;;75.30;49.90;;;;;;;10.16;77.22;97726.16;4973604;28;20022;-75
2024/03/05 00:32:44;;;;;;;76.22;47.95;;;;;;;10.20;77.58;97740.72;4974230;28;20077;-76
2024/03/05 00:35:10;;;;;;;75.03;50.05;;;;;;;10.17;77.60;97742.06;4944309;28;20395;-76
2024/03/05 00:37:36;;;;;;;71.57;48.38;;;;;;;10.25;77.39;97743.47;4957730;28;20045;-76
2024/03/05 00:40:04;;;;;;;75.68;49.30;;;;;;;10.27;77.33;97750.22;4973827;28;20034;-76
2024/03/05 00:42:30;;;;;;;74.07;50.67;;;;;;;10.13;77.59;97732.03;4990254;28;20066;-76
2024/03/05 00:44:55;;;;;;;74.00;50.17;;;;;;;10.24;77.57;97758.81;4958254;28;20125;-75
2024/03/05 00:47:21;;;;;;;75.38;50.22;;;;;;;10.16;76.90;97734.22;4957698;28;20454;-76
2024/03/05 00:49:46;;;;;;;78.70;50.03;;;;;;;10.17;77.41;97733.19;4967667;28;20122;-76
2024/03/05 00:52:11;;;;;;;83.13;50.83;;;;;;;10.18;77.07;97734.78;4972881;28;20053;-76
2024/03/05 00:54:37;;;;;;;81.68;51.55;;;;;;;10.24;77.40;97744.56;4983740;28;20463;-77
2024/03/05 00:57:03;;;;;;;82.28;51.70;;;;;;;10.17;77.29;97739.38;4989802;28;20407;-76
2024/03/05 00:59:30;;;;;;;83.03;51.33;;;;;;;10.06;77.37;97731.41;4973516;28;20041;-76
2024/03/05 01:01:55;;;;;;;75.47;50.08;;;;;;;9.83;77.68;97688.63;4953332;28;20038;-76
2024/03/05 01:04:21;;;;;;;79.50;52.17;;;;;;;10.07;77.17;97722.25;4956536;28;20034;-76
2024/03/05 01:06:46;;;;;;;78.47;51.45;;;;;;;9.97;77.59;97714.06;4972721;28;20043;-76
2024/03/05 01:09:16;;;;;;;78.88;50.13;;;;;;;9.99;77.37;97720.03;4949541;28;20045;-75
2024/03/05 01:11:42;;;;;;;75.07;50.53;;;;;;;10.12;77.61;97733.94;4952003;28;20073;-75
2024/03/05 01:14:08;;;;;;;78.40;52.13;;;;;;;10.09;77.72;97728.19;4972735;28;20023;-77
2024/03/05 01:16:33;;;;;;;74.93;50.53;;;;;;;9.96;77.85;97715.16;4957736;28;20039;-76
2024/03/05 01:18:59;;;;;;;77.68;51.25;;;;;;;10.08;77.58;97727.38;4960700;28;20030;-75
2024/03/05 01:21:24;;;;;;;79.35;51.08;;;;;;;10.14;77.63;97728.28;4971740;28;20105;-75
2024/03/05 01:23:50;;;;;;;82.20;52.75;;;;;;;10.16;77.20;97734.22;4965683;28;20030;-75
2024/03/05 01:26:15;;;;;;;84.32;51.28;;;;;;;10.20;77.58;97740.72;4972199;28;20043;-75
2024/03/05 01:28:41;;;;;;;78.97;51.30;;;;;;;10.11;77.12;97718.00;4973420;28;20110;-75
2024/03/05 01:31:08;;;;;;;76.57;49.97;;;;;;;10.20;77.21;97732.66;4978266;28;20039;-75
2024/03/05 01:33:35;;;;;;;77.47;50.35;;;;;;;10.12;77.86;97714.28;4964417;28;20031;-74
2024/03/05 01:36:03;;;;;;;82.00;51.40;;;;;;;10.27;77.65;97738.63;4987076;28;20039;-74
2024/03/05 01:38:29;;;;;;;71.20;48.10;;;;;;;10.26;77.82;97740.53;4942634;28;20390;-74
2024/03/05 01:40:54;;;;;;;78.82;49.22;;;;;;;10.22;77.27;97725.94;4984766;28;20039;-73
2024/03/05 01:43:20;;;;;;;79.43;50.22;;;;;;;10.17;77.42;97727.78;4963279;28;20019;-74
2024/03/05 01:45:45;;;;;;;78.38;50.90;;;;;;;10.15;77.64;97725.34;4960758;28;20042;-73
2024/03/05 01:48:12;;;;;;;82.78;51.83;;;;;;;10.09;77.68;97725.50;4975360;28;20113;-74
2024/03/05 01:50:38;;;;;;;78.45;50.28;;;;;;;9.97;77.38;97701.44;4961754;28;20047;-74
2024/03/05 01:53:07;;;;;;;79.68;50.55;;;;;;;10.15;77.25;97727.22;4973825;28;20034;-75
2024/03/05 01:55:32;;;;;;;77.47;49.15;;;;;;;10.11;77.33;97716.16;4993061;28;20070;-75
2024/03/05 01:58:03;;;;;;;77.75;50.30;;;;;;;10.15;77.11;97724.53;4963812;28;20058;-76
2024/03/05 02:00:29;;;;;;;81.85;52.65;;;;;;;10.22;77.24;97735.91;4978404;28;20065;-74
2024/03/05 02:02:55;;;;;;;82.63;51.38;;;;;;;10.13;77.47;97729.34;4975293;28;20022;-76
2024/03/05 02:05:21;;;;;;;77.10;50.88;;;;;;;10.09;77.42;97720.13;4958416;28;20167;-75
2024/03/05 02:07:47;;;;;;;77.57;51.05;;;;;;;10.09;77.22;97725.50;4957103;28;20034;-76
2024/03/05 02:10:13;;;;;;;81.93;51.97;;;;;;;10.18;77.24;97740.16;4968734;28;20050;-76
2024/03/05 02:12:42;;;;;;;77.70;50.58;;;;;;;10.11;77.36;97734.13;4990778;28;20031;-75
2024/03/05 02:15:11;;;;;;;79.80;50.78;;;;;;;10.16;77.16;97743.13;4968930;28;20499;-75
2024/03/05 02:17:38;;;;;;;79.15;51.47;;;;;;;10.13;77.15;97737.41;4972879;28;20035;-75
2024/03/05 02:20:06;;;;;;;83.70;52.47;;;;;;;10.14;77.25;97741.75;4965392;28;20061;-76
2024/03/05 02:22:32;;;;;;;79.55;51.92;;;;;;;10.21;77.32;97743.19;4963851;28;20394;-75
2024/03/05 02:24:57;;;;;;;83.40;53.03;;;;;;;10.09;77.21;97722.81;4973470;28;20039;-76
2024/03/05 02:27:23;;;;;;;80.07;50.85;;;;;;;10.21;77.94;97739.66;4966321;28;20117;-75
2024/03/05 02:29:48;;;;;;;82.72;52.97;;;;;;;10.02;77.14;97703.38;4973945;28;20042;-76
2024/03/05 02:32:14;;;;;;;81.35;50.63;;;;;;;10.07;76.59;97716.88;4957666;28;20097;-76
2024/03/05 02:34:39;;;;;;;79.57;50.65;;;;;;;10.08;77.17;97723.91;4974093;28;20030;-76
2024/03/05 02:37:05;;;;;;;81.15;51.95;;;;;;;10.12;77.22;97735.81;4968418;28;20066;-75
2024/03/05 02:39:30;;;;;;;79.15;50.80;;;;;;;10.00;77.46;97719.78;4958182;28;20110;-75
2024/03/05 02:41:56;;;;;;;75.82;49.60;;;;;;;10.02;77.30;97730.28;4957814;28;20058;-75
2024/03/05 02:44:22;;;;;;;78.35;49.92;;;;;;;10.03;77.96;97748.88;4981712;28;20122;-75
2024/03/05 02:46:50;;;;;;;85.68;51.90;;;;;;;9.91;78.97;97740.13;4963833;28;20069;-75
2024/03/05 02:49:16;;;;;;;82.40;50.90;;;;;;;9.89;78.57;97744.13;4976781;28;20031;-75
2024/03/05 02:51:41;;;;;;;85.03;51.38;;;;;;;9.87;78.55;97743.56;4976722;28;20029;-76
2024/03/05 02:54:07;;;;;;;85.32;51.78;;;;;;;9.86;78.66;97741.91;4980934;28;20046;-75
2024/03/05 02:56:32;;;;;;;83.53;50.38;;;;;;;9.81;78.92;97733.78;4967790;28;20037;-75
2024/03/05 02:58:58;;;;;;;85.60;51.70;;;;;;;9.84;79.22;97761.00;4967217;28;20034;-77
2024/03/05 03:01:24;;;;;;;92.25;53.72;;;;;;;9.83;79.42;97758.53;4964081;28;20038;-74
2024/03/05 03:03:50;;;;;;;79.55;51.00;;;;;;;9.79;79.22;97746.66;4980673;28;20061;-75
2024/03/05 03:06:19;;;;;;;83.97;51.28;;;;;;;9.86;79.50;97752.69;4980757;28;20094;-74
2024/03/05 03:08:45;;;;;;;87.28;54.15;;;;;;;9.80;79.60;97757.19;4981422;28;20046;-75
2024/03/05 03:11:17;;;;;;;84.07;54.75;;;;;;;9.65;79.28;97741.69;4963443;28;20030;-75
2024/03/05 03:13:43;;;;;;;87.90;54.45;;;;;;;9.63;80.11;97748.38;4979450;28;20031;-76
2024/03/05 03:16:09;;;;;;;85.18;53.80;;;;;;;9.62;79.84;97749.41;4978960;28;20027;-75
2024/03/05 03:18:34;;;;;;;88.13;54.78;;;;;;;9.63;79.34;97746.50;4963094;28;20561;-76
2024/03/05 03:21:03;;;;;;;83.60;53.63;;;;;;;9.72;79.08;97755.75;4962715;28;20050;-76
2024/03/05 03:23:28;;;;;;;89.13;53.63;;;;;;;9.77;79.42;97764.94;4961763;28;20590;-75
2024/03/05 03:25:53;;;;;;;88.35;53.65;;;;;;;9.73;79.08;97760.03;4960968;28;20054;-74
2024/03/05 03:28:19;;;;;;;85.55;53.70;;;;;;;9.71;79.06;97747.91;4977130;28;20502;-73
2024/03/05 03:30:44;;;;;;;82.35;52.80;;;;;;;9.80;79.13;97759.06;4968629;28;20245;-74
2024/03/05 03:33:09;;;;;;;83.10;52.92;;;;;;;9.73;79.01;97759.25;4992201;28;20040;-74
2024/03/05 03:35:35;;;;;;;81.82;51.47;;;;;;;9.74;79.40;97753.63;4968690;28;20117;-74
2024/03/05 03:38:01;;;;;;;81.30;52.95;;;;;;;9.72;78.80;97739.63;4968722;28;20085;-74
2024/03/05 03:40:26;;;;;;;87.22;54.17;;;;;;;9.77;79.10;97754.19;4976647;28;20023;-76
2024/03/05 03:42:52;;;;;;;92.90;57.80;;;;;;;9.73;78.80;97743.13;4976790;28;20113;-75
2024/03/05 03:45:18;;;;;;;90.20;57.35;;;;;;;9.83;78.98;97763.91;4964810;28;20026;-76
2024/03/05 03:47:45;;;;;;;86.00;53.70;;;;;;;9.83;78.84;97767.44;4960860;28;20449;-75
2024/03/05 03:50:11;;;;;;;91.35;53.90;;;;;;;9.70;79.07;97755.19;4975524;28;20657;-75
2024/03/05 03:52:38;;;;;;;87.20;54.53;;;;;;;9.82;78.31;97765.81;4958882;28;20133;-75
2024/03/05 03:55:05;;;;;;;88.82;54.90;;;;;;;9.79;78.86;97770.88;4963537;28;20065;-75
2024/03/05 03:57:32;;;;;;;88.50;56.53;;;;;;;9.74;79.06;97772.44;4959368;28;20402;-76
2024/03/05 03:59:58;;;;;;;89.85;54.58;;;;;;;9.59;79.09;97758.00;4959747;28;20026;-75
2024/03/05 04:02:23;;;;;;;94.45;54.63;;;;;;;9.51;79.13;97769.97;4975833;28;20085;-74
2024/03/05 04:04:49;;;;;;;95.32;54.95;;;;;;;9.45;79.51;97768.25;4974040;28;20030;-73
2024/03/05 04:07:18;;;;;;;90.20;55.00;;;;;;;9.43;79.15;97775.78;4974250;28;20137;-74
2024/03/05 04:09:44;;;;;;;92.57;54.70;;;;;;;9.49;79.64;97790.91;4959284;28;20030;-73
2024/03/05 04:12:09;;;;;;;91.88;54.50;;;;;;;9.44;80.07;97777.41;4973966;28;20090;-74
2024/03/05 04:14:35;;;;;;;94.78;56.60;;;;;;;9.34;79.96;97766.50;4986966;28;20033;-74
2024/03/05 04:17:01;;;;;;;96.63;55.38;;;;;;;9.41;80.32;97785.97;4991439;28;20034;-74
2024/03/05 04:19:26;;;;;;;90.72;54.22;;;;;;;9.44;80.48;97798.09;4975164;28;20371;-74
2024/03/05 04:21:51;;;;;;;88.60;54.05;;;;;;;9.38;81.04;97794.50;4974974;28;20540;-74
2024/03/05 04:24:17;;;;;;;98.22;58.22;;;;;;;9.26;80.85;97785.75;4976454;28;20030;-74
2024/03/05 04:26:43;;;;;;;99.78;56.72;;;;;;;9.35;80.89;97789.63;4994786;28;20404;-73
2024/03/05 04:29:15;;;;;;;90.70;53.53;;;;;;;9.40;80.70;97794.28;4958091;28;20027;-73
2024/03/05 04:31:42;;;;;;;88.40;53.33;;;;;;;9.45;80.35;97799.72;4967650;28;20048;-74
2024/03/05 04:34:08;;;;;;;91.75;55.63;;;;;;;9.42;80.45;97794.84;4982089;28;20410;-73
2024/03/05 04:36:36;;;;;;;84.25;54.80;;;;;;;9.38;80.81;97783.75;4958062;28;20042;-74
2024/03/05 04:39:01;;;;;;;92.38;56.13;;;;;;;9.51;80.67;97802.22;4958173;28;20109;-73
2024/03/05 04:41:27;;;;;;;89.28;54.97;;;;;;;9.48;80.31;97794.66;4958057;28;20130;-73
2024/03/05 04:43:52;;;;;;;92.78;55.53;;;;;;;9.47;80.16;97793.03;4970728;28;20019;-74
2024/03/05 04:46:18;;;;;;;98.55;57.17;;;;;;;9.48;80.55;97793.84;4974746;28;20068;-74
2024/03/05 04:48:44;;;;;;;97.78;58.60;;;;;;;9.42;80.79;97774.16;4967420;28;20054;-74
2024/03/05 04:51:09;;;;;;;94.50;57.20;;;;;;;9.42;80.64;97794.84;4990660;28;20071;-73
2024/03/05 04:53:36;;;;;;;95.57;54.75;;;;;;;9.41;80.98;97796.69;4968338;28;20331;-74
2024/03/05 04:56:02;;;;;;;95.47;55.45;;;;;;;9.39;80.55;97790.75;4969064;28;20108;-74
2024/03/05 04:58:27;;;;;;;90.70;55.97;;;;;;;9.25;81.18;97794.03;4977122;28;20027;-75
2024/03/05 05:00:53;;;;;;;90.63;55.92;;;;;;;9.39;81.07;97796.13;4978642;28;20035;-75
2024/03/05 05:03:19;;;;;;;86.57;54.58;;;;;;;9.39;81.06;97800.69;4992900;28;20038;-75
2024/03/05 05:05:45;;;;;;;92.13;54.42;;;;;;;9.42;81.15;97806.41;4975758;28;20039;-74
2024/03/05 05:08:11;;;;;;;92.82;56.28;;;;;;;9.18;82.31;97796.88;4966179;28;20023;-74
2024/03/05 05:10:36;;;;;;;90.88;54.90;;;;;;;9.27;81.35;97798.09;4958643;28;20046;-74
2024/03/05 05:13:03;;;;;;;92.57;56.28;;;;;;;9.23;82.21;97796.16;4959467;28;20062;-74
2024/03/05 05:15:28;;;;;;;106.45;63.17;;;;;;;9.27;82.07;97798.09;4976057;28;20042;-74
2024/03/05 05:17:54;;;;;;;101.60;61.53;;;;;;;9.29;82.19;97795.97;4976165;28;20402;-74
2024/03/05 05:20:19;;;;;;;117.97;71.65;;;;;;;9.24;82.25;97803.16;4975268;28;20045;-74
2024/03/05 05:22:45;;;;;;;100.95;60.88;;;;;;;9.26;82.49;97801.03;4976648;28;20030;-74
2024/03/05 05:25:14;;;;;;;103.30;61.80;;;;;;;9.26;82.59;97799.19;4956808;28;20062;-74
2024/03/05 05:27:40;;;;;;;101.97;58.55;;;;;;;9.19;82.91;97795.84;4981924;28;20033;-76
2024/03/05 05:30:06;;;;;;;102.30;58.42;;;;;;;9.33;82.60;97813.25;4992629;28;20039;-77
2024/03/05 05:32:32;;;;;;;105.53;61.58;;;;;;;9.25;83.26;97810.97;4972414;28;20027;-75
2024/03/05 05:34:58;;;;;;;236.05;173.60;;;;;;;9.27;82.64;97808.84;4959196;28;20062;-75
2024/03/05 05:37:23;;;;;;;152.20;102.60;;;;;;;9.22;83.21;97800.72;4972941;28;20423;-75
2024/03/05 05:39:49;;;;;;;150.52;94.15;;;;;;;9.21;83.95;97825.97;4981336;28;20573;-74
2024/03/05 05:42:15;;;;;;;156.98;104.68;;;;;;;9.11;83.97;97814.22;4973191;28;20503;-74
2024/03/05 05:44:40;;;;;;;119.50;65.68;;;;;;;9.24;83.92;97825.44;4955891;28;20093;-74
2024/03/05 05:47:10;;;;;;;129.45;80.32;;;;;;;9.24;84.62;97825.44;4970320;28;20027;-73
2024/03/05 05:49:36;;;;;;;133.23;92.15;;;;;;;9.22;84.36;97811.44;4967121;28;20034;-74
2024/03/05 05:52:02;;;;;;;109.32;60.03;;;;;;;9.18;84.32;97798.75;4985434;28;20118;-78
2024/03/05 05:54:29;;;;;;;110.43;62.47;;;;;;;9.28;83.86;97813.19;4971642;28;20073;-74
2024/03/05 05:56:55;;;;;;;111.30;60.25;;;;;;;9.36;83.95;97833.47;4971585;28;20138;-74
2024/03/05 05:59:20;;;;;;;103.55;56.85;;;;;;;9.14;84.71;97814.56;4972318;28;20549;-74
2024/03/05 06:01:46;;;;;;;109.10;59.25;;;;;;;9.24;84.34;97832.72;4955092;28;20114;-74
2024/03/05 06:04:11;;;;;;;107.68;60.30;;;;;;;9.12;84.85;97818.56;4971473;28;20491;-75
2024/03/05 06:06:37;;;;;;;115.45;61.50;;;;;;;9.16;84.94;97828.56;4972811;28;20031;-75
2024/03/05 06:09:09;;;;;;;112.35;60.83;;;;;;;9.23;85.31;97841.84;4971407;28;20398;-74
2024/03/05 06:11:37;;;;;;;106.05;56.95;;;;;;;9.20;84.56;97836.94;4955556;28;20097;-75
2024/03/05 06:14:03;;;;;;;107.03;56.92;;;;;;;9.27;84.73;97846.47;4972684;28;20034;-75
2024/03/05 06:16:32;;;;;;;104.95;57.13;;;;;;;9.14;85.15;97835.22;4955440;28;20034;-75
2024/03/05 06:18:58;;;;;;;110.63;58.13;;;;;;;9.17;84.67;97835.56;4967745;28;20473;-75
2024/03/05 06:21:23;;;;;;;104.65;57.17;;;;;;;9.02;85.76;97838.00;4961274;28;20122;-75
2024/03/05 06:23:50;;;;;;;104.88;58.45;;;;;;;9.19;85.00;97840.69;4984371;28;20069;-75
2024/03/05 06:26:16;;;;;;;103.95;57.00;;;;;;;9.22;84.77;97849.06;4955617;28;20077;-75
2024/03/05 06:28:42;;;;;;;105.90;59.35;;;;;;;9.18;84.82;97847.94;4956467;28;20050;-75
2024/03/05 06:31:09;;;;;;;114.90;58.70;;;;;;;9.12;84.90;97843.56;4971866;28;20035;-75
2024/03/05 06:33:34;;;;;;;111.40;58.60;;;;;;;9.16;85.03;97857.28;4985874;28;20027;-75
2024/03/05 06:36:03;;;;;;;109.25;58.53;;;;;;;9.08;84.70;97837.00;4981903;28;20038;-75
2024/03/05 06:38:29;;;;;;;110.22;57.45;;;;;;;9.16;84.81;97839.31;4976693;28;20493;-75
2024/03/05 06:40:55;;;;;;;104.15;57.25;;;;;;;9.15;84.67;97839.56;4975673;28;20031;-75
2024/03/05 06:43:30;;;;;;;104.10;57.80;;;;;;;9.28;84.38;97858.03;4975260;28;20021;-75
2024/03/05 06:45:56;;;;;;;111.28;58.22;;;;;;;9.22;84.64;97843.69;4980027;28;20383;-75
2024/03/05 06:48:26;;;;;;;106.43;56.35;;;;;;;9.23;83.92;97839.97;4959020;28;20026;-75
2024/03/05 06:50:57;;;;;;;109.32;57.47;;;;;;;9.37;84.38;97867.31;4967448;28;20051;-75
2024/03/05 06:58:52;;;;;;;102.97;56.35;;;;;;;9.29;84.22;97857.78;4971329;28;20034;-75
2024/03/05 07:01:19;;;;;;;101.45;54.78;;;;;;;9.42;83.43;97865.53;4976455;28;20034;-75
2024/03/05 07:03:45;;;;;;;102.07;54.38;;;;;;;9.52;83.65;97870.25;4979251;28;20042;-75
2024/03/05 07:06:12;;;;;;;97.43;53.72;;;;;;;9.51;83.47;97864.06;4966131;28;20034;-75
2024/03/05 07:08:38;;;;;;;99.72;53.55;;;;;;;9.57;83.00;97867.63;4958724;28;20398;-75
2024/03/05 07:11:05;;;;;;;101.47;53.38;;;;;;;9.53;83.39;97859.25;4968138;28;20553;-75
2024/03/05 07:13:40;;;;;;;95.53;53.95;;;;;;;9.46;83.07;97855.91;4974275;28;20039;-75
2024/03/05 07:16:07;;;;;;;93.93;51.97;;;;;;;9.66;82.95;97872.34;4988961;28;20046;-75
2024/03/05 07:18:33;;;;;;;93.57;51.65;;;;;;;9.37;82.60;97821.63;4975558;28;20031;-75
2024/03/05 07:20:59;;;;;;;101.78;56.38;;;;;;;9.62;82.43;97871.22;4973669;28;20042;-75
2024/03/05 07:23:28;;;;;;;95.78;55.53;;;;;;;9.79;82.44;97876.56;4958190;28;20048;-75
2024/03/05 07:25:58;;;;;;;97.35;54.65;;;;;;;9.68;82.78;97859.47;4978222;28;20042;-76
2024/03/05 07:28:26;;;;;;;89.05;51.20;;;;;;;9.69;81.91;97861.09;4963762;28;20024;-75
2024/03/05 07:30:52;;;;;;;86.82;48.88;;;;;;;9.72;82.13;97871.38;4971651;28;20045;-75
2024/03/05 07:33:17;;;;;;;83.05;47.20;;;;;;;9.73;81.83;97872.97;4990094;28;20019;-76
2024/03/05 07:35:43;;;;;;;85.35;47.22;;;;;;;9.65;82.04;97872.59;4973980;28;20054;-75
2024/03/05 07:38:09;;;;;;;67.18;39.47;;;;;;;9.66;81.70;97877.72;4971971;28;20509;-75
2024/03/05 07:40:34;;;;;;;71.32;40.22;;;;;;;9.72;80.71;97895.56;4957373;28;20030;-75
2024/03/05 07:43:04;;;;;;;68.05;39.13;;;;;;;9.74;80.88;97885.38;4963153;28;20423;-75
2024/03/05 07:45:30;;;;;;;62.03;36.80;;;;;;;9.64;80.55;97874.47;4973843;28;20113;-76
2024/03/05 07:47:56;;;;;;;62.25;38.10;;;;;;;9.59;80.68;97866.31;4989958;28;20026;-75
2024/03/05 07:50:22;;;;;;;55.97;34.97;;;;;;;9.62;80.14;97871.22;4963097;28;20035;-76
2024/03/05 07:52:47;;;;;;;57.70;34.00;;;;;;;9.80;80.10;97898.91;4969450;28;20038;-75
2024/03/05 07:55:18;;;;;;;56.33;33.65;;;;;;;9.75;80.19;97896.97;4971228;28;20114;-76
2024/03/05 07:57:44;;;;;;;55.15;34.85;;;;;;;9.79;80.35;97899.94;4978529;28;20039;-76
2024/03/05 08:00:17;;;;;;;54.28;33.38;;;;;;;9.79;80.38;97891.88;4984884;28;20026;-76
2024/03/05 08:02:55;;;;;;;68.78;41.13;;;;;;;9.84;79.59;97895.47;4966715;28;20142;-76
2024/03/05 08:05:21;;;;;;;155.80;91.45;;;;;;;9.80;79.97;97890.84;4957800;28;20038;-76
2024/03/05 08:07:57;;;;;;;66.97;40.50;;;;;;;9.81;79.80;97890.59;4974446;28;20052;-76
2024/03/05 08:10:23;;;;;;;86.40;54.38;;;;;;;9.62;80.14;97855.09;4965626;28;20039;-75
2024/03/05 08:12:50;;;;;;;55.97;36.60;;;;;;;9.82;80.25;97891.41;4980984;28;20027;-76
2024/03/05 08:15:16;;;;;;;55.65;35.42;;;;;;;9.79;80.49;97891.88;4972416;28;20045;-76
2024/03/05 08:17:49;;;;;;;61.20;37.90;;;;;;;9.65;80.04;97865.34;4956392;28;20022;-76
2024/03/05 08:20:18;;;;;;;54.50;31.92;;;;;;;9.72;81.09;97881.31;4970243;28;20047;-75
2024/03/05 08:22:47;;;;;;;55.78;31.63;;;;;;;9.72;81.18;97884.81;4961865;28;20074;-76
2024/03/05 08:25:17;;;;;;;57.20;35.13;;;;;;;9.68;81.12;97878.28;4964962;28;20043;-76
2024/03/05 08:27:47;;;;;;;51.13;32.05;;;;;;;9.81;80.40;97887.06;4960634;28;20038;-76
2024/03/05 08:30:21;;;;;;;44.95;27.48;;;;;;;9.72;80.37;97879.44;4956946;28;20030;-75
2024/03/05 08:32:47;;;;;;;64.45;39.38;;;;;;;9.91;80.28;97885.34;4944848;28;20595;-75
2024/03/05 08:35:13;;;;;;;49.75;29.90;;;;;;;9.67;80.55;97851.66;4980775;28;20090;-76
2024/03/05 08:37:40;;;;;;;90.60;59.42;;;;;;;9.72;80.64;97871.38;4972861;28;20121;-75
2024/03/05 08:40:13;;;;;;;61.83;37.17;;;;;;;9.77;81.38;97867.94;4973963;28;20122;-75
2024/03/05 08:42:43;;;;;;;53.63;33.63;;;;;;;9.97;81.04;97894.28;4974190;28;20434;-75
2024/03/05 08:45:10;;;;;;;54.83;33.30;;;;;;;9.97;81.44;97896.97;4972646;28;20045;-75
2024/03/05 08:47:36;;;;;;;48.38;30.17;;;;;;;9.92;81.31;97886.19;4972846;28;20022;-75
2024/03/05 08:50:01;;;;;;;57.03;36.17;;;;;;;9.96;81.58;97893.50;4956555;28;20038;-76
2024/03/05 08:52:27;;;;;;;52.53;31.50;;;;;;;9.99;81.62;97897.56;4974245;23;20039;-75
2024/03/05 08:54:52;;;;;;;56.00;32.83;;;;;;;9.86;81.49;97895.22;4990430;28;20490;-76
2024/03/05 08:57:18;;;;;;;56.65;32.55;;;;;;;9.70;81.30;97902.25;5003506;28;20113;-77
2024/03/05 08:59:43;;;;;;;54.20;32.78;;;;;;;9.68;81.68;97912.44;4991860;28;20074;-75
2024/03/05 09:02:09;;;;;;;54.55;33.00;;;;;;;9.76;81.60;97914.69;4980350;28;20018;-75
2024/03/05 09:04:35;;;;;;;56.17;32.97;;;;;;;9.64;81.04;97895.97;4972562;28;20038;-75
2024/03/05 09:07:01;;;;;;;52.53;32.60;;;;;;;9.70;81.09;97916.53;4972413;28;20077;-75
2024/03/05 09:09:30;;;;;;;56.83;32.58;;;;;;;9.75;81.33;97919.25;4972404;28;20479;-75
2024/03/05 09:11:56;;;;;;;49.90;30.02;;;;;;;9.63;81.87;97918.56;4971276;28;20031;-76
2024/03/05 09:14:22;;;;;;;52.13;30.95;;;;;;;9.41;82.46;97893.47;4972074;28;20408;-75
2024/03/05 09:16:47;;;;;;;50.63;31.15;;;;;;;9.52;81.90;97889.88;4972140;28;20034;-75
2024/03/05 09:19:14;;;;;;;54.60;32.10;;;;;;;9.63;81.20;97899.75;4955186;28;20039;-76
2024/03/05 09:21:44;;;;;;;51.28;30.83;;;;;;;9.77;81.02;97915.53;4970148;28;20034;-75
2024/03/05 09:24:10;;;;;;;53.95;31.50;;;;;;;9.81;80.77;97924.72;4954144;28;20034;-75
2024/03/05 09:26:36;;;;;;;49.50;31.02;;;;;;;9.71;81.13;97902.00;4954249;28;20380;-75
2024/03/05 09:29:02;;;;;;;51.85;31.48;;;;;;;9.79;80.59;97913.41;4970167;28;20045;-76
2024/03/05 09:31:27;;;;;;;53.90;31.17;;;;;;;9.83;79.25;97919.91;4953617;28;20022;-76
2024/03/05 09:33:53;;;;;;;52.45;30.98;;;;;;;9.49;80.20;97879.63;4962014;28;20451;-76
2024/03/05 09:36:18;;;;;;;55.65;32.80;;;;;;;9.72;80.35;97917.09;4947611;28;20090;-75
2024/03/05 09:38:44;;;;;;;49.78;30.17;;;;;;;9.78;80.45;97919.84;4971944;28;20447;-75
2024/03/05 09:41:11;;;;;;;53.17;31.42;;;;;;;9.77;80.13;97919.03;4955407;28;20026;-76
2024/03/05 09:43:40;;;;;;;49.55;29.77;;;;;;;9.89;80.33;97929.69;4968980;28;20042;-75
2024/03/05 09:46:06;;;;;;;49.78;30.55;;;;;;;9.70;79.97;97915.69;4969859;28;20046;-76
2024/03/05 09:48:35;;;;;;;52.35;31.45;;;;;;;9.61;80.62;97915.28;4955678;28;20455;-76
2024/03/05 09:51:01;;;;;;;46.75;29.33;;;;;;;9.63;80.10;97905.13;4972435;28;20023;-76
2024/03/05 09:53:27;;;;;;;50.72;30.95;;;;;;;9.77;80.04;97924.41;4955632;28;20034;-75
2024/03/05 09:55:53;;;;;;;51.25;32.20;;;;;;;9.83;79.83;97931.47;4955524;28;20530;-75
2024/03/05 09:58:48;;;;;;;50.45;31.35;;;;;;;9.71;79.42;97934.25;4984544;28;20121;-75
2024/03/05 10:01:14;;;;;;;50.72;31.58;;;;;;;9.69;79.81;97920.25;4962662;28;20054;-76
2024/03/05 10:03:40;;;;;;;50.45;31.88;;;;;;;9.71;79.58;97922.69;4956594;28;20080;-76
2024/03/05 10:06:09;;;;;;;56.72;33.28;;;;;;;9.61;79.91;97907.22;4975469;28;20383;-76
2024/03/05 10:08:34;;;;;;;48.00;30.67;;;;;;;9.75;79.77;97929.22;4991746;28;20379;-76
2024/03/05 10:13:36;;;;;;;49.92;31.63;;;;;;;9.94;78.77;97937.84;5220558;22;20058;-73
2024/03/05 10:16:22;;;;;;;50.72;32.35;;;;;;;9.88;78.55;97938.81;4962269;28;20034;-75
2024/03/05 10:18:49;;;;;;;55.38;32.65;;;;;;;9.89;78.52;97924.31;4978845;28;20045;-76
2024/03/05 10:21:20;;;;;;;53.42;32.22;;;;;;;9.69;78.83;97904.13;4974963;28;20700;-76
2024/03/05 10:23:47;;;;;;;50.17;31.13;;;;;;;9.80;78.46;97906.97;4975419;28;20034;-77
2024/03/05 10:26:30;;;;;;;47.10;31.90;;;;;;;9.90;78.46;97915.16;4958518;28;20078;-75
2024/03/05 10:29:13;;;;;;;50.25;31.15;;;;;;;9.96;77.97;97924.97;4975789;28;20042;-75
2024/03/05 10:31:42;;;;;;;47.80;30.58;;;;;;;10.03;78.35;97931.81;4975199;28;20069;-75
2024/03/05 10:34:08;;;;;;;48.72;31.00;;;;;;;9.88;77.99;97906.53;4976634;28;20062;-76
2024/03/05 10:36:35;;;;;;;49.63;30.85;;;;;;;10.08;77.96;97917.59;4975526;28;20062;-75
2024/03/05 10:39:01;;;;;;;48.42;30.35;;;;;;;10.16;78.03;97934.16;5010740;28;20015;-74
2024/03/05 10:41:28;;;;;;;52.75;32.00;;;;;;;9.98;78.23;97890.56;5016878;28;20031;-76
2024/03/05 10:43:55;;;;;;;49.85;31.33;;;;;;;10.12;78.20;97913.38;4978319;28;20078;-75
2024/03/05 10:46:22;;;;;;;48.30;30.17;;;;;;;10.22;77.13;97919.69;4968216;28;20039;-75
2024/03/05 10:48:50;;;;;;;48.80;30.05;;;;;;;10.33;77.22;97934.13;4976280;28;20030;-76
2024/03/05 10:51:19;;;;;;;45.53;30.15;;;;;;;10.37;77.29;97929.88;5005821;23;21361;-76
2024/03/05 10:53:45;;;;;;;48.95;30.50;;;;;;;10.38;77.55;97934.19;4997543;28;20026;-76
2024/03/05 10:56:11;;;;;;;45.00;29.60;;;;;;;10.35;77.75;97918.53;4997446;28;20037;-75
2024/03/05 11:01:03;;;;;;;47.47;31.05;;;;;;;10.27;76.22;97910.88;4998841;28;20033;-75
2024/03/05 11:03:41;;;;;;;49.85;30.83;;;;;;;10.33;76.57;97923.38;4994191;28;20367;-75
2024/03/05 11:06:07;;;;;;;46.53;29.98;;;;;;;10.37;76.75;97933.38;4978487;28;20034;-76
2024/03/05 11:08:35;;;;;;;45.08;29.27;;;;;;;10.23;76.10;97910.59;4988526;28;20029;-75
2024/03/05 11:11:07;;;;;;;47.40;30.75;;;;;;;10.20;76.16;97915.63;4979924;28;20069;-75
2024/03/05 11:13:33;;;;;;;46.63;30.88;;;;;;;10.35;75.94;97923.91;4977567;28;20045;-75
2024/03/05 11:16:00;;;;;;;44.50;29.52;;;;;;;10.35;76.16;97913.16;4993257;28;20030;-76
2024/03/05 11:18:31;;;;;;;50.33;32.17;;;;;;;10.39;75.82;97914.28;4977748;28;20046;-76
2024/03/05 11:20:58;;;;;;;46.97;32.03;;;;;;;10.39;76.33;97908.88;5000312;28;20038;-76
2024/03/05 11:23:29;;;;;;;47.03;30.23;;;;;;;10.34;76.21;97895.38;5001209;28;20125;-76
2024/03/05 11:25:57;;;;;;;43.38;29.30;;;;;;;10.47;76.64;97921.94;4993547;28;20034;-76
2024/03/05 11:28:23;;;;;;;43.17;29.90;;;;;;;10.59;75.78;97914.53;4985891;28;20058;-76
2024/03/05 11:31:07;;;;;;;43.78;27.83;;;;;;;10.70;76.18;97924.38;4976875;28;20573;-76